This is the latest recevied weather packets stored in our database for station/object OM8AKX-12. If no packets are shown the sender has not sent any weather packets the latest 10 day(s).
| Time | Temp. | Humidity | Pressure | Rain* | Wind** | Luminosity | Snow |
|---|---|---|---|---|---|---|---|
| 1777397069 | 10.56° C | 28% | 1015.8 hPa | - | - | - | - |
| 1777396169 | 11.11° C | 29% | 1015.5 hPa | - | - | - | - |
| 1777395269 | 11.11° C | 29% | 1015.3 hPa | - | - | - | - |
| 1777394369 | 12.22° C | 29% | 1015.1 hPa | - | - | - | - |
| 1777393469 | 13.89° C | 28% | 1015.2 hPa | - | - | - | - |
| 1777391669 | 13.33° C | 30% | 1015 hPa | - | - | - | - |
| 1777390769 | 12.78° C | 31% | 1015 hPa | - | - | - | - |
| 1777389869 | 12.78° C | 31% | 1015 hPa | - | - | - | - |
| 1777388969 | 13.33° C | 32% | 1015.1 hPa | - | - | - | - |
| 1777388069 | 13.33° C | 31% | 1015 hPa | - | - | - | - |
| 1777387169 | 13.89° C | 31% | 1015.2 hPa | - | - | - | - |
| 1777386269 | 13.89° C | 32% | 1015.2 hPa | - | - | - | - |
| 1777385369 | 14.44° C | 31% | 1015.3 hPa | - | - | - | - |
| 1777384469 | 15° C | 30% | 1015.4 hPa | - | - | - | - |
| 1777383569 | 16.67° C | 29% | 1015.3 hPa | - | - | - | - |
| 1777382669 | 16.11° C | 30% | 1015.3 hPa | - | - | - | - |
| 1777381769 | 14.44° C | 31% | 1015.4 hPa | - | - | - | - |
| 1777380868 | 15.56° C | 30% | 1015.5 hPa | - | - | - | - |
| 1777379968 | 16.67° C | 30% | 1015.3 hPa | - | - | - | - |
| 1777379068 | 17.78° C | 29% | 1015.3 hPa | - | - | - | - |
| 1777378168 | 15.56° C | 30% | 1015.3 hPa | - | - | - | - |
| 1777377268 | 16.11° C | 29% | 1015.2 hPa | - | - | - | - |
| 1777376368 | 17.22° C | 28% | 1015.4 hPa | - | - | - | - |
| 1777375468 | 19.44° C | 26% | 1015.3 hPa | - | - | - | - |
| 1777374568 | 17.22° C | 29% | 1015.4 hPa | - | - | - | - |
* Rain since midnight (hover to see other rain measurements)
** Current wind speed in m/s (hover to see current wind gust speed)